createdAt,value
2022-08-19T00:01:40.039Z,4.60
2022-08-19T00:04:08.399Z,4.90
2022-08-19T00:06:36.483Z,4.38
2022-08-19T00:09:04.059Z,4.35
2022-08-19T00:11:30.547Z,4.45
2022-08-19T00:13:57.577Z,4.40
2022-08-19T00:16:26.125Z,4.03
2022-08-19T00:18:53.274Z,4.13
2022-08-19T00:21:19.838Z,3.63
2022-08-19T00:23:46.408Z,4.20
2022-08-19T00:26:12.887Z,3.80
2022-08-19T00:31:06.942Z,3.83
2022-08-19T00:33:33.637Z,4.07
2022-08-19T00:36:01.136Z,4.00
2022-08-19T00:38:37.776Z,4.10
2022-08-19T00:41:05.927Z,3.72
2022-08-19T00:43:32.364Z,3.97
2022-08-19T00:48:25.241Z,3.67
2022-08-19T00:50:54.037Z,4.38
2022-08-19T00:53:22.782Z,4.18
2022-08-19T00:55:51.403Z,4.03
2022-08-19T00:58:20.648Z,4.07
2022-08-19T01:00:48.167Z,4.43
2022-08-19T01:03:19.347Z,4.28
2022-08-19T01:05:46.810Z,4.13
2022-08-19T01:08:14.563Z,3.90
2022-08-19T01:10:45.782Z,3.58
2022-08-19T01:13:13.034Z,3.63
2022-08-19T01:15:43.281Z,4.32
2022-08-19T01:18:11.644Z,3.83
2022-08-19T01:20:38.621Z,3.95
2022-08-19T01:23:05.219Z,3.75
2022-08-19T01:25:34.397Z,3.80
2022-08-19T01:28:02.146Z,4.03
2022-08-19T01:30:37.694Z,4.10
2022-08-19T01:33:06.458Z,3.80
2022-08-19T01:35:33.435Z,3.88
2022-08-19T01:38:01.229Z,3.85
2022-08-19T01:40:30.146Z,4.03
2022-08-19T01:42:56.626Z,4.10
2022-08-19T01:47:55.550Z,4.60
2022-08-19T01:50:28.452Z,4.60
2022-08-19T01:53:05.965Z,4.45
2022-08-19T01:55:40.890Z,4.28
2022-08-19T01:58:09.783Z,4.32
2022-08-19T02:00:36.226Z,4.45
2022-08-19T02:05:30.153Z,4.15
2022-08-19T02:07:57.508Z,4.75
2022-08-19T02:10:24.094Z,3.88
2022-08-19T02:12:50.701Z,4.30
2022-08-19T02:15:17.766Z,4.40
2022-08-19T02:17:44.242Z,4.50
2022-08-19T02:22:37.106Z,4.07
2022-08-19T02:27:30.072Z,4.10
2022-08-19T02:29:57.182Z,4.10
2022-08-19T02:34:50.183Z,3.78
2022-08-19T02:37:35.347Z,3.70
2022-08-19T02:40:02.426Z,3.47
2022-08-19T02:42:29.834Z,3.70
2022-08-19T02:47:23.025Z,3.80
2022-08-19T02:52:17.490Z,3.65
2022-08-19T02:54:44.655Z,4.30
2022-08-19T02:57:11.215Z,4.43
2022-08-19T03:02:04.179Z,4.20
2022-08-19T03:04:30.725Z,4.07
2022-08-19T03:09:28.680Z,4.80
2022-08-19T03:14:21.578Z,4.47
2022-08-19T03:19:15.076Z,4.97
2022-08-19T03:21:43.083Z,4.90
2022-08-19T03:24:10.578Z,5.03
2022-08-19T03:26:44.378Z,5.00
2022-08-19T03:29:12.035Z,6.47
2022-08-19T03:31:44.762Z,5.50
2022-08-19T03:34:19.400Z,5.22
2022-08-19T03:36:46.674Z,4.68
2022-08-19T03:39:13.312Z,4.80
2022-08-19T03:41:44.442Z,4.90
2022-08-19T03:44:17.899Z,4.88
2022-08-19T03:46:45.427Z,4.97
2022-08-19T03:49:13.948Z,4.68
2022-08-19T03:51:41.700Z,4.68
2022-08-19T03:54:09.664Z,4.57
2022-08-19T03:56:36.741Z,4.75
2022-08-19T03:59:04.459Z,4.97
2022-08-19T04:01:35.460Z,4.40
2022-08-19T04:04:02.195Z,4.90
2022-08-19T04:06:31.492Z,5.72
2022-08-19T04:08:59.313Z,6.93
2022-08-19T04:11:42.901Z,7.65
2022-08-19T04:14:12.028Z,7.63
2022-08-19T04:16:38.585Z,8.27
2022-08-19T04:21:31.647Z,8.88
2022-08-19T04:23:58.377Z,8.77
2022-08-19T04:26:26.046Z,9.32
2022-08-19T04:28:52.670Z,9.60
2022-08-19T04:31:20.622Z,8.88
2022-08-19T04:33:50.524Z,10.15
2022-08-19T04:36:22.326Z,9.85
2022-08-19T04:38:49.303Z,9.80
2022-08-19T04:41:34.985Z,9.30
2022-08-19T04:44:04.585Z,9.60
2022-08-19T04:46:40.213Z,10.18
2022-08-19T04:49:19.560Z,10.27
2022-08-19T04:51:48.634Z,9.93
2022-08-19T04:54:15.622Z,9.98
2022-08-19T04:56:55.301Z,9.65
2022-08-19T05:01:50.927Z,8.85
2022-08-19T05:04:20.064Z,9.82
2022-08-19T05:06:48.884Z,9.63
2022-08-19T05:09:16.007Z,9.75
2022-08-19T05:11:42.958Z,9.50
2022-08-19T05:14:09.578Z,9.50
2022-08-19T05:16:36.479Z,9.38
2022-08-19T05:19:21.584Z,8.98
2022-08-19T05:22:06.851Z,8.10
2022-08-19T05:24:35.173Z,8.45
2022-08-19T05:27:03.396Z,8.73
2022-08-19T05:29:36.299Z,8.38
2022-08-19T05:32:05.956Z,8.80
2022-08-19T05:34:33.852Z,8.82
2022-08-19T05:37:02.020Z,9.50
2022-08-19T05:39:29.531Z,10.07
2022-08-19T05:42:00.438Z,10.73
2022-08-19T05:44:27.810Z,12.20
2022-08-19T05:46:54.353Z,12.30
2022-08-19T05:51:47.324Z,12.27
2022-08-19T05:54:14.386Z,12.02
2022-08-19T05:56:41.329Z,12.32
2022-08-19T05:59:10.547Z,12.63
2022-08-19T06:01:38.328Z,12.82
2022-08-19T06:04:04.867Z,14.82
2022-08-19T06:06:31.594Z,14.25
2022-08-19T06:08:58.251Z,15.68
2022-08-19T06:11:33.464Z,20.05
2022-08-19T06:14:01.642Z,18.77
2022-08-19T06:16:28.708Z,19.63
2022-08-19T06:18:57.770Z,21.52
2022-08-19T06:21:25.878Z,22.90
2022-08-19T06:23:52.865Z,22.15
2022-08-19T06:26:20.330Z,26.35
2022-08-19T06:28:47.646Z,26.58
2022-08-19T06:31:18.448Z,27.27
2022-08-19T06:33:45.645Z,31.00
2022-08-19T06:36:21.411Z,31.85
2022-08-19T06:38:52.388Z,32.47
2022-08-19T06:41:18.855Z,32.72
2022-08-19T06:43:45.411Z,31.85
2022-08-19T06:46:14.597Z,31.58
2022-08-19T06:48:45.066Z,32.13
2022-08-19T06:51:12.522Z,32.33
2022-08-19T06:53:40.516Z,33.05
2022-08-19T06:56:07.160Z,31.95
2022-08-19T06:58:33.603Z,31.13
2022-08-19T07:01:04.440Z,31.13
2022-08-19T07:03:35.536Z,30.48
2022-08-19T07:06:09.644Z,31.13
2022-08-19T07:11:09.345Z,32.03
2022-08-19T07:13:38.213Z,28.55
2022-08-19T07:16:06.193Z,30.55
2022-08-19T07:18:34.023Z,30.33
2022-08-19T07:21:05.088Z,31.48
2022-08-19T07:26:09.448Z,30.80
2022-08-19T07:28:39.951Z,33.42
2022-08-19T07:31:14.107Z,29.50
2022-08-19T07:33:43.966Z,31.73
2022-08-19T07:36:14.634Z,30.67
2022-08-19T07:38:42.579Z,28.75
2022-08-19T07:41:13.639Z,29.90
2022-08-19T07:43:40.883Z,30.08
2022-08-19T07:48:34.171Z,28.95
2022-08-19T07:51:06.299Z,27.00
2022-08-19T07:53:36.724Z,27.58
2022-08-19T07:56:06.451Z,24.20
2022-08-19T07:58:34.507Z,26.55
2022-08-19T08:01:01.450Z,26.02
2022-08-19T08:03:47.233Z,25.73
2022-08-19T08:06:33.328Z,27.30
2022-08-19T08:09:12.059Z,26.30
2022-08-19T08:11:39.546Z,25.65
2022-08-19T08:14:06.391Z,24.15
2022-08-19T08:16:39.599Z,24.20
2022-08-19T08:19:25.294Z,24.55
2022-08-19T08:21:52.919Z,24.33
2022-08-19T08:24:19.531Z,22.20
2022-08-19T08:26:46.847Z,21.35
2022-08-19T08:29:20.310Z,21.80
2022-08-19T08:31:48.896Z,20.67
2022-08-19T08:34:25.171Z,21.73
2022-08-19T08:36:53.134Z,20.77
2022-08-19T08:39:20.829Z,20.38
2022-08-19T08:42:10.069Z,20.00
2022-08-19T08:44:51.061Z,20.20
2022-08-19T08:47:19.882Z,18.70
2022-08-19T08:49:51.282Z,19.67
2022-08-19T08:52:25.517Z,19.65
2022-08-19T08:54:59.774Z,18.65
2022-08-19T08:57:54.527Z,18.70
2022-08-19T09:00:27.481Z,16.92
2022-08-19T09:02:54.933Z,19.17
2022-08-19T09:05:25.861Z,18.90
2022-08-19T09:07:58.753Z,18.52
2022-08-19T09:10:32.730Z,17.98
2022-08-19T09:13:09.507Z,16.33
2022-08-19T09:15:41.329Z,18.08
2022-08-19T09:18:09.568Z,15.77
2022-08-19T09:20:41.658Z,15.05
2022-08-19T09:23:10.466Z,15.68
2022-08-19T09:25:37.020Z,16.30
2022-08-19T09:28:05.737Z,14.57
2022-08-19T09:33:07.117Z,15.35
2022-08-19T09:35:50.059Z,14.98
2022-08-19T09:38:20.129Z,14.07
2022-08-19T09:40:47.830Z,13.13
2022-08-19T09:43:14.300Z,13.85
2022-08-19T09:45:41.101Z,13.80
2022-08-19T09:48:07.643Z,13.77
2022-08-19T09:50:51.303Z,14.05
2022-08-19T09:53:18.959Z,12.65
2022-08-19T09:55:45.430Z,13.20
2022-08-19T09:58:12.717Z,13.50
2022-08-19T10:00:39.470Z,14.23
2022-08-19T10:03:05.958Z,13.52
2022-08-19T10:05:55.484Z,14.52
2022-08-19T10:08:27.279Z,14.25
2022-08-19T10:10:54.236Z,13.15
2022-08-19T10:13:23.581Z,13.15
2022-08-19T10:15:51.656Z,13.82
2022-08-19T10:18:19.437Z,15.70
2022-08-19T10:20:46.668Z,16.15
2022-08-19T10:23:19.183Z,15.40
2022-08-19T10:25:45.694Z,15.27
2022-08-19T10:28:14.915Z,15.63
2022-08-19T10:30:41.655Z,15.10
2022-08-19T10:33:10.814Z,16.15
2022-08-19T10:35:56.360Z,16.45
2022-08-19T10:38:28.905Z,17.13
2022-08-19T10:40:58.835Z,16.63
2022-08-19T10:43:25.945Z,19.75
2022-08-19T10:46:00.227Z,19.85
2022-08-19T10:48:26.948Z,19.75
2022-08-19T10:51:22.784Z,19.48
2022-08-19T10:53:50.221Z,21.38
2022-08-19T10:56:35.468Z,21.27
2022-08-19T11:01:31.789Z,22.50
2022-08-19T11:03:58.487Z,21.58
2022-08-19T11:06:26.189Z,24.10
2022-08-19T11:08:55.452Z,23.10
2022-08-19T11:11:22.433Z,22.52
2022-08-19T11:13:50.770Z,23.13
2022-08-19T11:16:18.759Z,23.45
2022-08-19T11:18:48.654Z,25.40
2022-08-19T11:21:20.041Z,23.48
2022-08-19T11:23:47.987Z,22.48
2022-08-19T11:26:16.053Z,24.73
2022-08-19T11:28:43.058Z,24.92
2022-08-19T11:31:12.523Z,24.23
2022-08-19T11:33:39.093Z,23.25
2022-08-19T11:36:05.911Z,25.17
2022-08-19T11:38:32.466Z,24.85
2022-08-19T11:41:00.401Z,26.13
2022-08-19T11:43:27.851Z,24.98
2022-08-19T11:45:55.204Z,24.02
2022-08-19T11:48:24.779Z,22.48
2022-08-19T11:50:52.273Z,25.08
2022-08-19T11:53:21.099Z,24.02
2022-08-19T11:55:48.503Z,25.05
2022-08-19T11:58:18.736Z,23.60
2022-08-19T12:00:46.642Z,22.65
2022-08-19T12:03:14.002Z,23.13
2022-08-19T12:05:41.346Z,24.23
2022-08-19T12:08:13.865Z,23.73
2022-08-19T12:10:42.445Z,21.65
2022-08-19T12:13:09.891Z,19.73
2022-08-19T12:15:38.156Z,22.75
2022-08-19T12:18:05.687Z,22.63
2022-08-19T12:20:36.353Z,22.50
2022-08-19T12:23:03.631Z,22.13
2022-08-19T12:25:30.397Z,20.70
2022-08-19T12:27:57.791Z,19.60
2022-08-19T12:30:24.960Z,20.27
2022-08-19T12:32:52.270Z,18.08
2022-08-19T12:35:20.941Z,17.52
2022-08-19T12:37:56.870Z,17.50
2022-08-19T12:40:26.409Z,16.80
2022-08-19T12:42:53.649Z,16.27
2022-08-19T12:45:20.253Z,16.73
2022-08-19T12:47:47.884Z,15.38
2022-08-19T12:50:16.251Z,15.98
2022-08-19T12:52:43.418Z,15.27
2022-08-19T12:55:11.574Z,14.45
2022-08-19T12:57:38.693Z,14.05
2022-08-19T13:00:13.696Z,12.93
2022-08-19T13:02:41.662Z,13.23
2022-08-19T13:05:09.897Z,12.43
2022-08-19T13:07:36.945Z,12.07
2022-08-19T13:10:04.084Z,11.95
2022-08-19T13:12:32.454Z,11.50
2022-08-19T13:14:59.107Z,9.80
2022-08-19T13:17:25.937Z,9.15
2022-08-19T13:19:52.597Z,8.65
2022-08-19T13:22:19.195Z,8.32
2022-08-19T13:24:47.355Z,9.60
2022-08-19T13:27:14.263Z,11.15
2022-08-19T13:30:00.518Z,11.18
2022-08-19T13:32:46.411Z,10.98
2022-08-19T13:35:16.966Z,10.35
2022-08-19T13:37:44.262Z,10.43
2022-08-19T13:40:33.383Z,11.55
2022-08-19T13:43:01.938Z,10.30
2022-08-19T13:45:42.998Z,10.18
2022-08-19T13:48:10.250Z,9.98
2022-08-19T13:50:41.566Z,10.45
2022-08-19T13:53:10.401Z,14.60
2022-08-19T13:55:41.299Z,14.80
2022-08-19T13:58:08.694Z,15.73
2022-08-19T14:10:13.571Z,15.45
2022-08-19T14:12:40.472Z,15.95
2022-08-19T14:15:07.885Z,16.10
2022-08-19T14:17:36.209Z,13.88
2022-08-19T14:20:10.798Z,14.15
2022-08-19T14:22:38.802Z,11.30
2022-08-19T14:25:07.321Z,10.82
2022-08-19T14:27:34.754Z,10.88
2022-08-19T14:30:01.240Z,10.30
2022-08-19T14:32:28.114Z,9.00
2022-08-19T14:34:55.793Z,9.93
2022-08-19T14:37:23.222Z,10.25
2022-08-19T14:39:52.066Z,9.48
2022-08-19T14:42:18.623Z,9.90
2022-08-19T14:44:45.216Z,9.38
2022-08-19T14:47:12.310Z,9.27
2022-08-19T14:49:43.010Z,8.35
2022-08-19T14:52:12.715Z,8.80
2022-08-19T14:54:39.110Z,6.93
2022-08-19T14:57:05.540Z,7.55
2022-08-19T14:59:31.918Z,7.45
2022-08-19T15:01:58.417Z,6.50
2022-08-19T15:04:45.045Z,6.03
2022-08-19T15:07:11.483Z,6.70
2022-08-19T15:09:37.884Z,5.78
2022-08-19T15:12:05.549Z,6.07
2022-08-19T15:14:35.771Z,5.93
2022-08-19T15:17:03.276Z,6.00
2022-08-19T15:19:30.764Z,5.50
2022-08-19T15:21:57.384Z,4.80
2022-08-19T15:24:26.134Z,5.47
2022-08-19T15:26:56.738Z,4.68
2022-08-19T15:29:25.222Z,4.43
2022-08-19T15:32:00.799Z,4.57
2022-08-19T15:34:28.053Z,4.05
2022-08-19T15:36:54.540Z,4.70
2022-08-19T15:39:21.649Z,4.63
2022-08-19T15:41:48.201Z,4.50
2022-08-19T15:44:18.468Z,4.75
2022-08-19T15:46:46.188Z,5.10
2022-08-19T15:49:14.293Z,5.78
2022-08-19T15:51:43.006Z,6.10
2022-08-19T15:54:11.124Z,6.25
2022-08-19T15:57:07.009Z,5.90
2022-08-19T15:59:53.036Z,6.93
2022-08-19T16:02:39.543Z,6.53
2022-08-19T16:05:25.584Z,7.05
2022-08-19T16:07:52.045Z,6.97
2022-08-19T16:10:27.089Z,7.47
2022-08-19T16:15:21.117Z,8.55
2022-08-19T16:17:55.349Z,8.85
2022-08-19T16:22:52.603Z,8.95
2022-08-19T16:25:21.845Z,9.80
2022-08-19T16:27:56.256Z,10.43
2022-08-19T16:30:35.147Z,10.98
2022-08-19T16:33:02.278Z,10.30
2022-08-19T16:35:29.149Z,11.32
2022-08-19T16:37:56.370Z,11.73
2022-08-19T16:40:23.170Z,12.68
2022-08-19T16:42:49.692Z,12.98
2022-08-19T16:45:19.496Z,11.90
2022-08-19T16:47:45.909Z,12.15
2022-08-19T16:50:12.442Z,11.65
2022-08-19T16:52:38.882Z,12.38
2022-08-19T16:55:05.926Z,12.73
2022-08-19T16:57:33.202Z,11.25
2022-08-19T16:59:59.779Z,11.52
2022-08-19T17:02:29.569Z,15.00
2022-08-19T17:04:58.231Z,13.20
2022-08-19T17:07:36.595Z,10.57
2022-08-19T17:10:04.456Z,9.63
2022-08-19T17:12:32.329Z,9.32
2022-08-19T17:15:00.608Z,9.90
2022-08-19T17:17:29.394Z,9.93
2022-08-19T17:19:56.383Z,9.65
2022-08-19T17:22:22.801Z,10.38
2022-08-19T17:24:50.602Z,11.52
2022-08-19T17:27:17.200Z,12.02
2022-08-19T17:29:46.873Z,9.77
2022-08-19T17:32:13.831Z,9.25
2022-08-19T17:34:40.207Z,11.10
2022-08-19T17:37:06.600Z,11.57
2022-08-19T17:39:33.138Z,10.52
2022-08-19T17:42:05.973Z,10.27
2022-08-19T17:44:36.517Z,10.75
2022-08-19T17:47:04.197Z,9.75
2022-08-19T17:49:30.687Z,9.63
2022-08-19T17:52:00.107Z,9.32
2022-08-19T17:54:33.270Z,9.40
2022-08-19T17:57:01.241Z,9.77
2022-08-19T17:59:29.936Z,9.70
2022-08-19T18:01:57.151Z,9.60
2022-08-19T18:04:24.790Z,10.25
2022-08-19T18:06:55.040Z,10.07
2022-08-19T18:09:41.440Z,9.85
2022-08-19T18:12:11.042Z,10.82
2022-08-19T18:14:40.176Z,10.77
2022-08-19T18:17:10.922Z,10.93
2022-08-19T18:19:41.487Z,9.77
2022-08-19T18:22:09.323Z,10.95
2022-08-19T18:24:38.007Z,10.80
2022-08-19T18:27:06.887Z,10.93
2022-08-19T18:29:34.131Z,12.30
2022-08-19T18:32:00.663Z,11.52
2022-08-19T18:34:27.146Z,11.32
2022-08-19T18:36:54.252Z,11.23
2022-08-19T18:39:39.759Z,10.45
2022-08-19T18:42:34.405Z,10.90
2022-08-19T18:45:19.437Z,10.43
2022-08-19T18:48:04.733Z,11.38
2022-08-19T18:50:31.211Z,10.15
2022-08-19T18:52:57.721Z,10.18
2022-08-19T18:58:26.795Z,9.88
2022-08-19T19:00:56.912Z,10.43
2022-08-19T19:03:24.368Z,9.57
2022-08-19T19:05:52.154Z,9.43
2022-08-19T19:08:18.812Z,9.35
2022-08-19T19:10:45.287Z,8.85
2022-08-19T19:13:17.128Z,8.75
2022-08-19T19:15:43.955Z,8.23
2022-08-19T19:18:13.909Z,7.80
2022-08-19T19:20:40.983Z,7.57
2022-08-19T19:23:07.549Z,7.75
2022-08-19T19:25:50.659Z,6.95
2022-08-19T19:28:29.142Z,6.55
2022-08-19T19:30:58.516Z,6.07
2022-08-19T19:33:25.781Z,5.95
2022-08-19T19:35:52.579Z,5.82
2022-08-19T19:38:19.195Z,5.80
2022-08-19T19:40:45.923Z,5.32
2022-08-19T19:43:12.754Z,4.95
2022-08-19T19:45:39.216Z,4.47
2022-08-19T19:48:05.816Z,4.90
2022-08-19T19:50:32.431Z,4.70
2022-08-19T19:52:58.814Z,4.75
2022-08-19T19:55:26.571Z,4.78
2022-08-19T19:57:57.728Z,4.93
2022-08-19T20:00:25.290Z,4.60
2022-08-19T20:02:56.190Z,5.03
2022-08-19T20:05:25.207Z,5.10
2022-08-19T20:08:11.965Z,5.53
2022-08-19T20:10:39.396Z,5.10
2022-08-19T20:13:06.547Z,5.13
2022-08-19T20:15:33.543Z,5.18
2022-08-19T20:18:00.792Z,5.28
2022-08-19T20:20:27.242Z,5.30
2022-08-19T20:22:56.627Z,5.38
2022-08-19T20:25:23.228Z,5.50
2022-08-19T20:27:49.872Z,5.75
2022-08-19T20:30:19.500Z,6.50
2022-08-19T20:32:46.877Z,5.93
2022-08-19T20:35:14.187Z,6.70
2022-08-19T20:37:41.538Z,7.30
2022-08-19T20:40:11.571Z,6.95
2022-08-19T20:42:41.874Z,7.25
2022-08-19T20:45:09.887Z,8.00
2022-08-19T20:47:56.394Z,7.80
2022-08-19T20:50:23.142Z,7.70
2022-08-19T20:52:50.097Z,7.68
2022-08-19T20:55:21.920Z,8.05
2022-08-19T20:57:48.348Z,7.85
2022-08-19T21:00:15.111Z,8.40
2022-08-19T21:02:41.541Z,8.32
2022-08-19T21:05:08.089Z,8.45
2022-08-19T21:07:39.260Z,9.00
2022-08-19T21:10:06.796Z,8.32
2022-08-19T21:12:33.331Z,9.30
2022-08-19T21:14:59.818Z,8.77
2022-08-19T21:17:26.262Z,9.00
2022-08-19T21:19:52.649Z,9.93
2022-08-19T21:22:19.115Z,9.07
2022-08-19T21:24:45.542Z,9.27
2022-08-19T21:27:11.922Z,10.35
2022-08-19T21:32:06.875Z,9.57
2022-08-19T21:34:33.282Z,9.68
2022-08-19T21:36:59.774Z,9.25
2022-08-19T21:39:26.219Z,10.13
2022-08-19T21:41:54.932Z,9.88
2022-08-19T21:44:21.382Z,10.02
2022-08-19T21:46:50.565Z,10.10
2022-08-19T21:49:17.191Z,10.25
2022-08-19T21:51:44.152Z,10.65
2022-08-19T21:54:14.015Z,10.32
2022-08-19T21:56:41.121Z,10.35
2022-08-19T21:59:07.768Z,10.05
2022-08-19T22:01:34.233Z,10.90
2022-08-19T22:04:00.742Z,10.73
2022-08-19T22:06:27.192Z,9.85
2022-08-19T22:08:56.600Z,9.73
2022-08-19T22:11:23.681Z,10.32
2022-08-19T22:13:53.699Z,9.73
2022-08-19T22:16:20.939Z,10.25
2022-08-19T22:18:48.083Z,10.18
2022-08-19T22:21:14.780Z,10.27
2022-08-19T22:23:47.508Z,10.43
2022-08-19T22:26:14.906Z,10.15
2022-08-19T22:28:42.095Z,10.50
2022-08-19T22:31:11.823Z,10.73
2022-08-19T22:33:39.067Z,10.35
2022-08-19T22:36:07.482Z,10.73
2022-08-19T22:38:34.657Z,11.48
2022-08-19T22:41:02.134Z,12.55
2022-08-19T22:43:32.560Z,12.13
2022-08-19T22:45:59.711Z,10.95
2022-08-19T22:48:27.963Z,11.27
2022-08-19T22:51:13.522Z,10.85
2022-08-19T22:53:41.134Z,11.88
2022-08-19T22:56:11.936Z,12.15
2022-08-19T22:58:42.239Z,11.32
2022-08-19T23:01:08.765Z,11.63
2022-08-19T23:03:35.270Z,11.38
2022-08-19T23:06:01.675Z,10.85
2022-08-19T23:08:28.145Z,11.38
2022-08-19T23:10:54.594Z,12.00
2022-08-19T23:13:21.009Z,11.40
2022-08-19T23:15:47.502Z,10.90
2022-08-19T23:18:14.340Z,11.63
2022-08-19T23:20:42.124Z,12.18
2022-08-19T23:23:09.850Z,11.07
2022-08-19T23:25:36.810Z,11.52
2022-08-19T23:28:22.346Z,12.05
2022-08-19T23:30:49.197Z,8.80
2022-08-19T23:33:26.350Z,13.40
2022-08-19T23:36:14.664Z,13.23
2022-08-19T23:38:42.121Z,13.23
2022-08-19T23:41:10.033Z,12.98
2022-08-19T23:43:37.274Z,13.05
2022-08-19T23:46:10.432Z,12.70
2022-08-19T23:48:37.224Z,13.52
2022-08-19T23:51:05.315Z,12.90
2022-08-19T23:53:32.225Z,8.35
2022-08-19T23:55:58.708Z,12.18
2022-08-19T23:58:29.317Z,13.48
